Accueil
METAR-TAF:

METAR-TAF

Aéroports :

Aéroport international Modibo Keïta

Bamako, Mali

latitude: 12-32N, longitude: 007-57W, altitude: 380 m

Observation

Le bulletin a été fait il y a 39 minutes, à 12:00 UTC
Vent 1 kt de direction variable
Température 33°C
Humidité 8%
Pression 1015 hPa
Visibilité 10 km ou plus
pas de nuages en-dessous de 1500 mètres et pas de cumulonimbus.

METAR: GABS 181200Z VRB01KT CAVOK 33/M06 Q1015 NOSIG

Heure: 12:39 (12:39 UTC)

Prévision

Le bulletin a été fait il y a 1 heure et 19 minutes, à 11:20 UTC
Prévision valable du 18 à 12 UTC au 19 à 18 UTC
Vent 6 kt de nord/nord-est
Visibilité 10 km ou plus
pas de nuages en-dessous de 1500 mètres et pas de cumulonimbus.

TAF: GABS 181120Z 1812/1918 03006KT CAVOK

Observations et prévisions météorologiques de plus de 4000 aéroports (messages METAR et TAF).

Les stations disponibles sont représentées par des disques jaunes et rouges sur la carte.

Passer la souris dessus pour voir le nom de la station.

Cliquer dessus pour voir les observations et prévisions météorologiques.

Pour changer de carte: cliquez sur les boutons verts avec une croix noire pour zoomer, sur le bouton vert avec un tiret pour effectuer un zoom arrière, ou sur les flèches vertes pour les cartes adjacentes.


METAR-TAF: